sensor_id;sensor_type;location;lat;lon;timestamp;P1;durP1;ratioP1;P2;durP2;ratioP2
7703;SDS011;3894;49.700;10.770;2023-04-08T00:01:53;9.77;;;4.10;;
7703;SDS011;3894;49.700;10.770;2023-04-08T00:04:19;9.73;;;4.15;;
7703;SDS011;3894;49.700;10.770;2023-04-08T00:06:45;11.05;;;4.65;;
7703;SDS011;3894;49.700;10.770;2023-04-08T00:09:10;12.00;;;5.55;;
7703;SDS011;3894;49.700;10.770;2023-04-08T00:11:36;12.13;;;4.95;;
7703;SDS011;3894;49.700;10.770;2023-04-08T00:14:02;10.38;;;4.30;;
7703;SDS011;3894;49.700;10.770;2023-04-08T00:16:28;11.20;;;4.50;;
7703;SDS011;3894;49.700;10.770;2023-04-08T00:18:54;10.48;;;4.47;;
7703;SDS011;3894;49.700;10.770;2023-04-08T00:21:19;11.63;;;3.80;;
7703;SDS011;3894;49.700;10.770;2023-04-08T00:23:46;9.43;;;4.47;;
7703;SDS011;3894;49.700;10.770;2023-04-08T00:26:11;10.85;;;4.53;;
7703;SDS011;3894;49.700;10.770;2023-04-08T00:28:37;9.73;;;4.75;;
7703;SDS011;3894;49.700;10.770;2023-04-08T00:31:02;10.55;;;5.22;;
7703;SDS011;3894;49.700;10.770;2023-04-08T00:33:28;13.13;;;4.70;;
7703;SDS011;3894;49.700;10.770;2023-04-08T00:35:55;10.05;;;4.57;;
7703;SDS011;3894;49.700;10.770;2023-04-08T00:38:20;10.93;;;4.55;;
7703;SDS011;3894;49.700;10.770;2023-04-08T00:40:46;9.80;;;4.70;;
7703;SDS011;3894;49.700;10.770;2023-04-08T00:43:11;11.60;;;5.20;;
7703;SDS011;3894;49.700;10.770;2023-04-08T00:45:37;13.02;;;5.28;;
7703;SDS011;3894;49.700;10.770;2023-04-08T00:48:03;11.30;;;4.82;;
7703;SDS011;3894;49.700;10.770;2023-04-08T00:50:29;12.05;;;4.72;;
7703;SDS011;3894;49.700;10.770;2023-04-08T00:52:55;11.07;;;5.82;;
7703;SDS011;3894;49.700;10.770;2023-04-08T00:55:20;11.65;;;5.05;;
7703;SDS011;3894;49.700;10.770;2023-04-08T00:57:46;10.80;;;5.13;;
7703;SDS011;3894;49.700;10.770;2023-04-08T01:00:12;10.82;;;4.55;;
7703;SDS011;3894;49.700;10.770;2023-04-08T01:05:10;11.77;;;5.78;;
7703;SDS011;3894;49.700;10.770;2023-04-08T01:07:46;11.43;;;5.13;;
7703;SDS011;3894;49.700;10.770;2023-04-08T01:10:25;14.48;;;5.80;;
7703;SDS011;3894;49.700;10.770;2023-04-08T01:12:55;12.30;;;5.93;;
7703;SDS011;3894;49.700;10.770;2023-04-08T01:15:22;13.50;;;5.90;;
7703;SDS011;3894;49.700;10.770;2023-04-08T01:17:52;12.25;;;5.85;;
7703;SDS011;3894;49.700;10.770;2023-04-08T01:20:19;12.43;;;5.07;;
7703;SDS011;3894;49.700;10.770;2023-04-08T01:25:59;13.00;;;5.28;;
7703;SDS011;3894;49.700;10.770;2023-04-08T01:28:26;9.90;;;5.00;;
7703;SDS011;3894;49.700;10.770;2023-04-08T01:30:54;13.32;;;5.55;;
7703;SDS011;3894;49.700;10.770;2023-04-08T01:33:22;12.73;;;5.15;;
7703;SDS011;3894;49.700;10.770;2023-04-08T01:35:48;16.77;;;5.85;;
7703;SDS011;3894;49.700;10.770;2023-04-08T01:38:16;12.52;;;5.85;;
7703;SDS011;3894;49.700;10.770;2023-04-08T01:40:44;12.98;;;5.95;;
7703;SDS011;3894;49.700;10.770;2023-04-08T01:43:12;13.77;;;6.63;;
7703;SDS011;3894;49.700;10.770;2023-04-08T01:45:40;13.48;;;6.03;;
7703;SDS011;3894;49.700;10.770;2023-04-08T01:48:10;12.73;;;6.43;;
7703;SDS011;3894;49.700;10.770;2023-04-08T01:53:05;13.75;;;5.68;;
7703;SDS011;3894;49.700;10.770;2023-04-08T01:55:33;11.75;;;5.72;;
7703;SDS011;3894;49.700;10.770;2023-04-08T01:58:00;14.85;;;6.85;;
7703;SDS011;3894;49.700;10.770;2023-04-08T02:00:29;11.52;;;5.78;;
7703;SDS011;3894;49.700;10.770;2023-04-08T02:02:56;15.40;;;6.30;;
7703;SDS011;3894;49.700;10.770;2023-04-08T02:05:23;16.15;;;6.47;;
7703;SDS011;3894;49.700;10.770;2023-04-08T02:07:49;14.50;;;6.82;;
7703;SDS011;3894;49.700;10.770;2023-04-08T02:10:15;15.40;;;6.57;;
7703;SDS011;3894;49.700;10.770;2023-04-08T02:12:41;14.82;;;6.75;;
7703;SDS011;3894;49.700;10.770;2023-04-08T02:15:08;14.27;;;6.50;;
7703;SDS011;3894;49.700;10.770;2023-04-08T02:17:36;11.27;;;6.10;;
7703;SDS011;3894;49.700;10.770;2023-04-08T02:20:21;11.70;;;5.85;;
7703;SDS011;3894;49.700;10.770;2023-04-08T02:23:03;12.55;;;6.43;;
7703;SDS011;3894;49.700;10.770;2023-04-08T02:25:34;11.82;;;5.10;;
7703;SDS011;3894;49.700;10.770;2023-04-08T02:28:03;14.10;;;6.03;;
7703;SDS011;3894;49.700;10.770;2023-04-08T02:30:31;14.25;;;6.22;;
7703;SDS011;3894;49.700;10.770;2023-04-08T02:32:57;13.68;;;6.65;;
7703;SDS011;3894;49.700;10.770;2023-04-08T02:35:25;12.23;;;5.88;;
7703;SDS011;3894;49.700;10.770;2023-04-08T02:37:52;13.63;;;6.22;;
7703;SDS011;3894;49.700;10.770;2023-04-08T02:40:24;11.38;;;5.18;;
7703;SDS011;3894;49.700;10.770;2023-04-08T02:42:50;15.10;;;6.43;;
7703;SDS011;3894;49.700;10.770;2023-04-08T02:45:16;10.95;;;6.13;;
7703;SDS011;3894;49.700;10.770;2023-04-08T02:47:41;13.90;;;8.02;;
7703;SDS011;3894;49.700;10.770;2023-04-08T02:50:07;13.45;;;5.93;;
7703;SDS011;3894;49.700;10.770;2023-04-08T02:52:33;12.10;;;5.90;;
7703;SDS011;3894;49.700;10.770;2023-04-08T02:54:59;15.43;;;6.40;;
7703;SDS011;3894;49.700;10.770;2023-04-08T02:57:27;12.50;;;6.65;;
7703;SDS011;3894;49.700;10.770;2023-04-08T02:59:52;12.20;;;5.88;;
7703;SDS011;3894;49.700;10.770;2023-04-08T03:02:18;13.00;;;5.95;;
7703;SDS011;3894;49.700;10.770;2023-04-08T03:04:44;11.95;;;6.68;;
7703;SDS011;3894;49.700;10.770;2023-04-08T03:07:09;13.23;;;6.05;;
7703;SDS011;3894;49.700;10.770;2023-04-08T03:09:35;13.00;;;6.60;;
7703;SDS011;3894;49.700;10.770;2023-04-08T03:12:01;11.23;;;6.35;;
7703;SDS011;3894;49.700;10.770;2023-04-08T03:14:27;12.88;;;6.78;;
7703;SDS011;3894;49.700;10.770;2023-04-08T03:16:53;12.65;;;5.90;;
7703;SDS011;3894;49.700;10.770;2023-04-08T03:19:18;11.25;;;6.28;;
7703;SDS011;3894;49.700;10.770;2023-04-08T03:21:44;17.42;;;7.03;;
7703;SDS011;3894;49.700;10.770;2023-04-08T03:24:09;14.73;;;6.88;;
7703;SDS011;3894;49.700;10.770;2023-04-08T03:26:35;13.77;;;5.88;;
7703;SDS011;3894;49.700;10.770;2023-04-08T03:29:00;12.32;;;5.55;;
7703;SDS011;3894;49.700;10.770;2023-04-08T03:31:26;12.20;;;6.07;;
7703;SDS011;3894;49.700;10.770;2023-04-08T03:33:51;10.63;;;5.45;;
7703;SDS011;3894;49.700;10.770;2023-04-08T03:36:17;11.70;;;6.13;;
7703;SDS011;3894;49.700;10.770;2023-04-08T03:38:43;12.85;;;5.47;;
7703;SDS011;3894;49.700;10.770;2023-04-08T03:41:08;12.63;;;5.82;;
7703;SDS011;3894;49.700;10.770;2023-04-08T03:43:34;14.60;;;6.32;;
7703;SDS011;3894;49.700;10.770;2023-04-08T03:46:00;13.63;;;5.45;;
7703;SDS011;3894;49.700;10.770;2023-04-08T03:48:26;13.27;;;5.43;;
7703;SDS011;3894;49.700;10.770;2023-04-08T03:50:52;10.90;;;5.47;;
7703;SDS011;3894;49.700;10.770;2023-04-08T03:53:18;13.18;;;5.15;;
7703;SDS011;3894;49.700;10.770;2023-04-08T03:55:43;10.75;;;5.15;;
7703;SDS011;3894;49.700;10.770;2023-04-08T03:58:12;11.23;;;5.07;;
7703;SDS011;3894;49.700;10.770;2023-04-08T04:00:37;11.93;;;5.72;;
7703;SDS011;3894;49.700;10.770;2023-04-08T04:03:03;11.38;;;4.93;;
7703;SDS011;3894;49.700;10.770;2023-04-08T04:05:32;10.00;;;4.40;;
7703;SDS011;3894;49.700;10.770;2023-04-08T04:08:00;12.00;;;5.65;;
7703;SDS011;3894;49.700;10.770;2023-04-08T04:10:26;12.50;;;5.63;;
7703;SDS011;3894;49.700;10.770;2023-04-08T04:12:52;9.52;;;5.22;;
7703;SDS011;3894;49.700;10.770;2023-04-08T04:15:23;11.45;;;5.40;;
7703;SDS011;3894;49.700;10.770;2023-04-08T04:17:49;9.73;;;4.78;;
7703;SDS011;3894;49.700;10.770;2023-04-08T04:20:16;11.77;;;5.50;;
7703;SDS011;3894;49.700;10.770;2023-04-08T04:22:42;9.63;;;5.47;;
7703;SDS011;3894;49.700;10.770;2023-04-08T04:25:07;12.63;;;5.75;;
7703;SDS011;3894;49.700;10.770;2023-04-08T04:27:33;10.68;;;4.88;;
7703;SDS011;3894;49.700;10.770;2023-04-08T04:30:00;13.15;;;4.88;;
7703;SDS011;3894;49.700;10.770;2023-04-08T04:32:27;10.60;;;4.93;;
7703;SDS011;3894;49.700;10.770;2023-04-08T04:34:52;12.23;;;5.03;;
7703;SDS011;3894;49.700;10.770;2023-04-08T04:37:18;10.65;;;4.85;;
7703;SDS011;3894;49.700;10.770;2023-04-08T04:39:43;11.98;;;5.40;;
7703;SDS011;3894;49.700;10.770;2023-04-08T04:42:09;12.07;;;4.78;;
7703;SDS011;3894;49.700;10.770;2023-04-08T04:44:35;9.45;;;4.93;;
7703;SDS011;3894;49.700;10.770;2023-04-08T04:47:01;11.75;;;5.05;;
7703;SDS011;3894;49.700;10.770;2023-04-08T04:49:26;12.20;;;5.40;;
7703;SDS011;3894;49.700;10.770;2023-04-08T04:51:52;11.20;;;5.28;;
7703;SDS011;3894;49.700;10.770;2023-04-08T04:54:18;13.32;;;5.05;;
7703;SDS011;3894;49.700;10.770;2023-04-08T04:56:43;11.95;;;5.18;;
7703;SDS011;3894;49.700;10.770;2023-04-08T04:59:09;13.35;;;5.57;;
7703;SDS011;3894;49.700;10.770;2023-04-08T05:01:35;11.20;;;5.65;;
7703;SDS011;3894;49.700;10.770;2023-04-08T05:04:00;12.05;;;6.30;;
7703;SDS011;3894;49.700;10.770;2023-04-08T05:06:26;11.25;;;5.30;;
7703;SDS011;3894;49.700;10.770;2023-04-08T05:08:52;12.85;;;5.55;;
7703;SDS011;3894;49.700;10.770;2023-04-08T05:11:17;18.63;;;7.97;;
7703;SDS011;3894;49.700;10.770;2023-04-08T05:13:43;24.75;;;11.48;;
7703;SDS011;3894;49.700;10.770;2023-04-08T05:16:09;12.38;;;5.47;;
7703;SDS011;3894;49.700;10.770;2023-04-08T05:18:35;11.13;;;5.45;;
7703;SDS011;3894;49.700;10.770;2023-04-08T05:21:00;11.35;;;5.22;;
7703;SDS011;3894;49.700;10.770;2023-04-08T05:23:26;10.80;;;5.40;;
7703;SDS011;3894;49.700;10.770;2023-04-08T05:25:52;9.70;;;4.82;;
7703;SDS011;3894;49.700;10.770;2023-04-08T05:28:18;11.85;;;6.28;;
7703;SDS011;3894;49.700;10.770;2023-04-08T05:30:50;10.80;;;5.45;;
7703;SDS011;3894;49.700;10.770;2023-04-08T05:33:16;11.52;;;5.22;;
7703;SDS011;3894;49.700;10.770;2023-04-08T05:35:42;10.77;;;4.55;;
7703;SDS011;3894;49.700;10.770;2023-04-08T05:38:08;8.50;;;4.57;;
7703;SDS011;3894;49.700;10.770;2023-04-08T05:40:34;11.63;;;5.13;;
7703;SDS011;3894;49.700;10.770;2023-04-08T05:43:00;11.68;;;5.10;;
7703;SDS011;3894;49.700;10.770;2023-04-08T05:45:26;12.68;;;5.32;;
7703;SDS011;3894;49.700;10.770;2023-04-08T05:47:52;10.23;;;4.95;;
7703;SDS011;3894;49.700;10.770;2023-04-08T05:50:18;11.15;;;5.32;;
7703;SDS011;3894;49.700;10.770;2023-04-08T05:52:44;12.73;;;4.85;;
7703;SDS011;3894;49.700;10.770;2023-04-08T05:55:10;9.95;;;4.47;;
7703;SDS011;3894;49.700;10.770;2023-04-08T05:57:39;10.02;;;4.93;;
7703;SDS011;3894;49.700;10.770;2023-04-08T06:00:06;11.82;;;4.78;;
7703;SDS011;3894;49.700;10.770;2023-04-08T06:02:33;11.18;;;5.20;;
7703;SDS011;3894;49.700;10.770;2023-04-08T06:05:00;12.20;;;5.15;;
7703;SDS011;3894;49.700;10.770;2023-04-08T06:07:26;11.02;;;4.53;;
7703;SDS011;3894;49.700;10.770;2023-04-08T06:09:52;12.68;;;5.40;;
7703;SDS011;3894;49.700;10.770;2023-04-08T06:12:21;10.25;;;4.88;;
7703;SDS011;3894;49.700;10.770;2023-04-08T06:14:46;9.32;;;4.20;;
7703;SDS011;3894;49.700;10.770;2023-04-08T06:17:12;12.27;;;4.85;;
7703;SDS011;3894;49.700;10.770;2023-04-08T06:19:38;11.15;;;4.68;;
7703;SDS011;3894;49.700;10.770;2023-04-08T06:22:03;11.73;;;4.82;;
7703;SDS011;3894;49.700;10.770;2023-04-08T06:24:29;9.02;;;4.13;;
7703;SDS011;3894;49.700;10.770;2023-04-08T06:26:55;10.07;;;5.20;;
7703;SDS011;3894;49.700;10.770;2023-04-08T06:29:21;12.43;;;5.28;;
7703;SDS011;3894;49.700;10.770;2023-04-08T06:31:48;11.18;;;4.95;;
7703;SDS011;3894;49.700;10.770;2023-04-08T06:34:14;12.25;;;4.78;;
7703;SDS011;3894;49.700;10.770;2023-04-08T06:36:42;10.43;;;5.97;;
7703;SDS011;3894;49.700;10.770;2023-04-08T06:39:08;10.18;;;4.95;;
7703;SDS011;3894;49.700;10.770;2023-04-08T06:41:34;11.88;;;5.40;;
7703;SDS011;3894;49.700;10.770;2023-04-08T06:44:00;11.82;;;5.95;;
7703;SDS011;3894;49.700;10.770;2023-04-08T06:46:26;10.82;;;5.43;;
7703;SDS011;3894;49.700;10.770;2023-04-08T06:48:52;10.68;;;5.07;;
7703;SDS011;3894;49.700;10.770;2023-04-08T06:51:20;11.50;;;4.90;;
7703;SDS011;3894;49.700;10.770;2023-04-08T06:53:51;10.98;;;5.55;;
7703;SDS011;3894;49.700;10.770;2023-04-08T06:56:19;11.77;;;5.35;;
7703;SDS011;3894;49.700;10.770;2023-04-08T06:58:46;10.40;;;4.88;;
7703;SDS011;3894;49.700;10.770;2023-04-08T07:01:15;11.13;;;5.53;;
7703;SDS011;3894;49.700;10.770;2023-04-08T07:03:46;11.73;;;5.65;;
7703;SDS011;3894;49.700;10.770;2023-04-08T07:06:12;10.05;;;4.50;;
7703;SDS011;3894;49.700;10.770;2023-04-08T07:08:41;10.90;;;5.32;;
7703;SDS011;3894;49.700;10.770;2023-04-08T07:11:07;13.20;;;5.55;;
7703;SDS011;3894;49.700;10.770;2023-04-08T07:13:36;12.48;;;4.43;;
7703;SDS011;3894;49.700;10.770;2023-04-08T07:16:01;9.90;;;4.43;;
7703;SDS011;3894;49.700;10.770;2023-04-08T07:18:30;18.40;;;5.22;;
7703;SDS011;3894;49.700;10.770;2023-04-08T07:20:58;12.27;;;5.22;;
7703;SDS011;3894;49.700;10.770;2023-04-08T07:23:25;9.68;;;4.90;;
7703;SDS011;3894;49.700;10.770;2023-04-08T07:25:51;10.05;;;4.38;;
7703;SDS011;3894;49.700;10.770;2023-04-08T07:28:27;10.32;;;4.97;;
7703;SDS011;3894;49.700;10.770;2023-04-08T07:30:55;11.88;;;5.13;;
7703;SDS011;3894;49.700;10.770;2023-04-08T07:33:32;10.35;;;4.82;;
7703;SDS011;3894;49.700;10.770;2023-04-08T07:36:00;10.27;;;5.57;;
7703;SDS011;3894;49.700;10.770;2023-04-08T07:38:26;11.15;;;4.90;;
7703;SDS011;3894;49.700;10.770;2023-04-08T07:40:52;10.95;;;4.45;;
7703;SDS011;3894;49.700;10.770;2023-04-08T07:43:17;8.57;;;3.47;;
7703;SDS011;3894;49.700;10.770;2023-04-08T07:45:43;7.85;;;3.85;;
7703;SDS011;3894;49.700;10.770;2023-04-08T07:48:08;11.05;;;4.78;;
7703;SDS011;3894;49.700;10.770;2023-04-08T07:50:37;8.70;;;3.97;;
7703;SDS011;3894;49.700;10.770;2023-04-08T07:53:03;7.63;;;3.83;;
7703;SDS011;3894;49.700;10.770;2023-04-08T07:55:33;11.57;;;4.72;;
7703;SDS011;3894;49.700;10.770;2023-04-08T07:57:59;9.55;;;4.32;;
7703;SDS011;3894;49.700;10.770;2023-04-08T08:00:25;8.18;;;4.30;;
7703;SDS011;3894;49.700;10.770;2023-04-08T08:02:51;10.18;;;4.53;;
7703;SDS011;3894;49.700;10.770;2023-04-08T08:05:17;10.65;;;5.38;;
7703;SDS011;3894;49.700;10.770;2023-04-08T08:07:48;9.07;;;4.88;;
7703;SDS011;3894;49.700;10.770;2023-04-08T08:10:17;10.25;;;4.82;;
7703;SDS011;3894;49.700;10.770;2023-04-08T08:12:45;9.27;;;4.20;;
7703;SDS011;3894;49.700;10.770;2023-04-08T08:15:11;8.93;;;3.97;;
7703;SDS011;3894;49.700;10.770;2023-04-08T08:17:37;8.40;;;3.83;;
7703;SDS011;3894;49.700;10.770;2023-04-08T08:20:03;8.65;;;3.78;;
7703;SDS011;3894;49.700;10.770;2023-04-08T08:22:29;8.52;;;3.47;;
7703;SDS011;3894;49.700;10.770;2023-04-08T08:24:55;7.20;;;3.05;;
7703;SDS011;3894;49.700;10.770;2023-04-08T08:27:22;7.35;;;2.92;;
7703;SDS011;3894;49.700;10.770;2023-04-08T08:29:48;8.15;;;3.58;;
7703;SDS011;3894;49.700;10.770;2023-04-08T08:32:14;6.95;;;2.85;;
7703;SDS011;3894;49.700;10.770;2023-04-08T08:34:40;8.75;;;3.00;;
7703;SDS011;3894;49.700;10.770;2023-04-08T08:37:06;6.80;;;2.53;;
7703;SDS011;3894;49.700;10.770;2023-04-08T08:39:32;7.97;;;3.63;;
7703;SDS011;3894;49.700;10.770;2023-04-08T08:42:01;14.30;;;6.05;;
7703;SDS011;3894;49.700;10.770;2023-04-08T08:44:28;34.35;;;14.00;;
7703;SDS011;3894;49.700;10.770;2023-04-08T08:46:56;11.43;;;4.97;;
7703;SDS011;3894;49.700;10.770;2023-04-08T08:49:22;20.38;;;8.90;;
7703;SDS011;3894;49.700;10.770;2023-04-08T08:51:48;8.32;;;3.55;;
7703;SDS011;3894;49.700;10.770;2023-04-08T08:54:16;8.75;;;3.92;;
7703;SDS011;3894;49.700;10.770;2023-04-08T08:56:43;7.78;;;2.92;;
7703;SDS011;3894;49.700;10.770;2023-04-08T08:59:08;7.60;;;3.22;;
7703;SDS011;3894;49.700;10.770;2023-04-08T09:01:35;17.67;;;6.68;;
7703;SDS011;3894;49.700;10.770;2023-04-08T09:04:15;7.90;;;3.30;;
7703;SDS011;3894;49.700;10.770;2023-04-08T09:06:48;7.47;;;2.97;;
7703;SDS011;3894;49.700;10.770;2023-04-08T09:09:15;8.32;;;3.65;;
7703;SDS011;3894;49.700;10.770;2023-04-08T09:11:42;8.43;;;2.95;;
7703;SDS011;3894;49.700;10.770;2023-04-08T09:14:16;7.70;;;4.15;;
7703;SDS011;3894;49.700;10.770;2023-04-08T09:16:48;9.15;;;4.63;;
7703;SDS011;3894;49.700;10.770;2023-04-08T09:19:15;7.38;;;3.05;;
7703;SDS011;3894;49.700;10.770;2023-04-08T09:21:43;13.23;;;5.53;;
7703;SDS011;3894;49.700;10.770;2023-04-08T09:24:09;7.47;;;2.88;;
7703;SDS011;3894;49.700;10.770;2023-04-08T09:26:52;6.88;;;2.72;;
7703;SDS011;3894;49.700;10.770;2023-04-08T09:29:18;8.45;;;2.72;;
7703;SDS011;3894;49.700;10.770;2023-04-08T09:31:58;8.48;;;3.60;;
7703;SDS011;3894;49.700;10.770;2023-04-08T09:34:25;7.80;;;2.83;;
7703;SDS011;3894;49.700;10.770;2023-04-08T09:36:56;7.80;;;2.63;;
7703;SDS011;3894;49.700;10.770;2023-04-08T09:39:22;8.05;;;2.83;;
7703;SDS011;3894;49.700;10.770;2023-04-08T09:41:50;8.15;;;2.65;;
7703;SDS011;3894;49.700;10.770;2023-04-08T09:44:17;7.63;;;3.10;;
7703;SDS011;3894;49.700;10.770;2023-04-08T09:49:54;6.00;;;2.80;;
7703;SDS011;3894;49.700;10.770;2023-04-08T09:52:23;6.47;;;2.42;;
7703;SDS011;3894;49.700;10.770;2023-04-08T09:55:04;6.78;;;2.78;;
7703;SDS011;3894;49.700;10.770;2023-04-08T10:00:09;6.78;;;2.80;;
7703;SDS011;3894;49.700;10.770;2023-04-08T10:03:00;9.25;;;2.80;;
7703;SDS011;3894;49.700;10.770;2023-04-08T10:05:31;7.10;;;2.97;;
7703;SDS011;3894;49.700;10.770;2023-04-08T10:08:06;7.15;;;3.05;;
7703;SDS011;3894;49.700;10.770;2023-04-08T10:10:37;7.75;;;2.42;;
7703;SDS011;3894;49.700;10.770;2023-04-08T10:13:05;5.43;;;2.30;;
7703;SDS011;3894;49.700;10.770;2023-04-08T10:15:32;7.60;;;2.45;;
7703;SDS011;3894;49.700;10.770;2023-04-08T10:23:06;7.75;;;2.78;;
7703;SDS011;3894;49.700;10.770;2023-04-08T10:25:34;5.82;;;2.92;;
7703;SDS011;3894;49.700;10.770;2023-04-08T10:28:00;7.40;;;3.08;;
7703;SDS011;3894;49.700;10.770;2023-04-08T10:38:24;7.35;;;2.85;;
7703;SDS011;3894;49.700;10.770;2023-04-08T10:40:51;7.07;;;2.80;;
7703;SDS011;3894;49.700;10.770;2023-04-08T10:43:18;7.65;;;4.18;;
7703;SDS011;3894;49.700;10.770;2023-04-08T10:45:44;6.30;;;3.17;;
7703;SDS011;3894;49.700;10.770;2023-04-08T10:48:14;6.40;;;2.85;;
7703;SDS011;3894;49.700;10.770;2023-04-08T10:50:41;6.55;;;2.85;;
7703;SDS011;3894;49.700;10.770;2023-04-08T10:53:08;6.82;;;2.92;;
7703;SDS011;3894;49.700;10.770;2023-04-08T10:55:35;6.85;;;3.28;;
7703;SDS011;3894;49.700;10.770;2023-04-08T10:58:08;7.10;;;2.83;;
7703;SDS011;3894;49.700;10.770;2023-04-08T11:00:36;6.93;;;2.83;;
7703;SDS011;3894;49.700;10.770;2023-04-08T11:03:05;8.27;;;3.45;;
7703;SDS011;3894;49.700;10.770;2023-04-08T11:07:57;5.45;;;2.33;;
7703;SDS011;3894;49.700;10.770;2023-04-08T11:10:24;6.82;;;2.97;;
7703;SDS011;3894;49.700;10.770;2023-04-08T11:12:56;6.47;;;2.78;;
7703;SDS011;3894;49.700;10.770;2023-04-08T11:15:25;7.13;;;2.72;;
7703;SDS011;3894;49.700;10.770;2023-04-08T11:17:57;7.50;;;2.67;;
7703;SDS011;3894;49.700;10.770;2023-04-08T11:20:23;8.48;;;3.17;;
7703;SDS011;3894;49.700;10.770;2023-04-08T11:22:49;7.65;;;3.03;;
7703;SDS011;3894;49.700;10.770;2023-04-08T11:25:15;6.68;;;2.88;;
7703;SDS011;3894;49.700;10.770;2023-04-08T11:27:41;7.50;;;2.90;;
7703;SDS011;3894;49.700;10.770;2023-04-08T11:30:09;6.65;;;2.60;;
7703;SDS011;3894;49.700;10.770;2023-04-08T11:32:36;6.03;;;2.67;;
7703;SDS011;3894;49.700;10.770;2023-04-08T11:35:06;7.60;;;3.10;;
7703;SDS011;3894;49.700;10.770;2023-04-08T11:40:08;6.03;;;2.40;;
7703;SDS011;3894;49.700;10.770;2023-04-08T11:42:37;7.53;;;3.90;;
7703;SDS011;3894;49.700;10.770;2023-04-08T11:45:10;7.03;;;3.38;;
7703;SDS011;3894;49.700;10.770;2023-04-08T11:47:43;7.28;;;3.03;;
7703;SDS011;3894;49.700;10.770;2023-04-08T11:50:32;8.60;;;3.45;;
7703;SDS011;3894;49.700;10.770;2023-04-08T11:52:58;6.00;;;2.63;;
7703;SDS011;3894;49.700;10.770;2023-04-08T11:55:27;6.07;;;2.65;;
7703;SDS011;3894;49.700;10.770;2023-04-08T11:58:00;7.68;;;3.38;;
7703;SDS011;3894;49.700;10.770;2023-04-08T12:00:32;7.47;;;3.28;;
7703;SDS011;3894;49.700;10.770;2023-04-08T12:02:58;7.05;;;3.63;;
7703;SDS011;3894;49.700;10.770;2023-04-08T12:05:26;7.53;;;3.05;;
7703;SDS011;3894;49.700;10.770;2023-04-08T12:07:54;6.53;;;3.45;;
7703;SDS011;3894;49.700;10.770;2023-04-08T12:10:25;9.88;;;3.67;;
7703;SDS011;3894;49.700;10.770;2023-04-08T12:12:51;6.32;;;2.83;;
7703;SDS011;3894;49.700;10.770;2023-04-08T12:15:20;8.18;;;3.67;;
7703;SDS011;3894;49.700;10.770;2023-04-08T12:17:58;6.93;;;3.20;;
7703;SDS011;3894;49.700;10.770;2023-04-08T12:20:39;6.68;;;2.58;;
7703;SDS011;3894;49.700;10.770;2023-04-08T12:23:24;5.47;;;2.78;;
7703;SDS011;3894;49.700;10.770;2023-04-08T12:25:55;6.25;;;2.95;;
7703;SDS011;3894;49.700;10.770;2023-04-08T12:28:21;7.60;;;3.80;;
7703;SDS011;3894;49.700;10.770;2023-04-08T12:30:55;7.13;;;3.05;;
7703;SDS011;3894;49.700;10.770;2023-04-08T12:33:21;6.50;;;2.90;;
7703;SDS011;3894;49.700;10.770;2023-04-08T12:35:52;8.45;;;3.45;;
7703;SDS011;3894;49.700;10.770;2023-04-08T12:38:20;6.28;;;2.58;;
7703;SDS011;3894;49.700;10.770;2023-04-08T12:40:52;5.68;;;2.65;;
7703;SDS011;3894;49.700;10.770;2023-04-08T12:43:23;7.40;;;3.15;;
7703;SDS011;3894;49.700;10.770;2023-04-08T12:45:51;7.35;;;3.20;;
7703;SDS011;3894;49.700;10.770;2023-04-08T12:48:26;8.65;;;4.07;;
7703;SDS011;3894;49.700;10.770;2023-04-08T12:50:55;7.57;;;3.10;;
7703;SDS011;3894;49.700;10.770;2023-04-08T12:53:27;7.75;;;2.65;;
7703;SDS011;3894;49.700;10.770;2023-04-08T12:58:32;8.88;;;2.75;;
7703;SDS011;3894;49.700;10.770;2023-04-08T13:00:58;8.88;;;3.30;;
7703;SDS011;3894;49.700;10.770;2023-04-08T13:04:04;7.60;;;2.90;;
7703;SDS011;3894;49.700;10.770;2023-04-08T13:06:32;6.35;;;2.45;;
7703;SDS011;3894;49.700;10.770;2023-04-08T13:09:09;7.07;;;2.42;;
7703;SDS011;3894;49.700;10.770;2023-04-08T13:11:58;6.72;;;2.50;;
7703;SDS011;3894;49.700;10.770;2023-04-08T13:14:37;7.13;;;2.70;;
7703;SDS011;3894;49.700;10.770;2023-04-08T13:17:14;9.73;;;3.60;;
7703;SDS011;3894;49.700;10.770;2023-04-08T13:19:59;11.23;;;4.30;;
7703;SDS011;3894;49.700;10.770;2023-04-08T13:22:32;9.93;;;3.72;;
7703;SDS011;3894;49.700;10.770;2023-04-08T13:25:07;7.82;;;3.00;;
7703;SDS011;3894;49.700;10.770;2023-04-08T13:27:58;7.43;;;2.60;;
7703;SDS011;3894;49.700;10.770;2023-04-08T13:30:27;7.35;;;3.00;;
7703;SDS011;3894;49.700;10.770;2023-04-08T13:32:59;7.47;;;2.95;;
7703;SDS011;3894;49.700;10.770;2023-04-08T13:35:46;8.30;;;2.60;;
7703;SDS011;3894;49.700;10.770;2023-04-08T13:38:28;6.68;;;2.67;;
7703;SDS011;3894;49.700;10.770;2023-04-08T13:40:54;6.88;;;3.30;;
7703;SDS011;3894;49.700;10.770;2023-04-08T13:43:23;7.32;;;2.47;;
7703;SDS011;3894;49.700;10.770;2023-04-08T13:46:01;6.05;;;2.00;;
7703;SDS011;3894;49.700;10.770;2023-04-08T13:48:40;6.28;;;1.88;;
7703;SDS011;3894;49.700;10.770;2023-04-08T13:51:17;7.00;;;2.35;;
7703;SDS011;3894;49.700;10.770;2023-04-08T13:54:00;6.55;;;2.20;;
7703;SDS011;3894;49.700;10.770;2023-04-08T13:59:47;5.97;;;2.05;;
7703;SDS011;3894;49.700;10.770;2023-04-08T14:02:50;6.10;;;2.67;;
7703;SDS011;3894;49.700;10.770;2023-04-08T14:05:24;6.57;;;2.55;;
7703;SDS011;3894;49.700;10.770;2023-04-08T14:07:53;7.55;;;2.75;;
7703;SDS011;3894;49.700;10.770;2023-04-08T14:10:19;7.10;;;2.58;;
7703;SDS011;3894;49.700;10.770;2023-04-08T14:12:52;6.35;;;1.85;;
7703;SDS011;3894;49.700;10.770;2023-04-08T14:15:24;7.20;;;2.03;;
7703;SDS011;3894;49.700;10.770;2023-04-08T14:18:07;6.20;;;2.20;;
7703;SDS011;3894;49.700;10.770;2023-04-08T14:20:46;6.80;;;2.33;;
7703;SDS011;3894;49.700;10.770;2023-04-08T14:23:45;6.35;;;2.22;;
7703;SDS011;3894;49.700;10.770;2023-04-08T14:26:33;7.18;;;2.65;;
7703;SDS011;3894;49.700;10.770;2023-04-08T14:29:36;5.68;;;1.83;;
7703;SDS011;3894;49.700;10.770;2023-04-08T14:32:07;7.15;;;1.95;;
7703;SDS011;3894;49.700;10.770;2023-04-08T14:34:41;7.15;;;2.33;;
7703;SDS011;3894;49.700;10.770;2023-04-08T14:37:42;9.05;;;2.67;;
7703;SDS011;3894;49.700;10.770;2023-04-08T14:40:18;6.85;;;2.47;;
7703;SDS011;3894;49.700;10.770;2023-04-08T14:43:01;7.07;;;2.25;;
7703;SDS011;3894;49.700;10.770;2023-04-08T14:48:47;7.80;;;2.42;;
7703;SDS011;3894;49.700;10.770;2023-04-08T14:54:08;7.40;;;2.40;;
7703;SDS011;3894;49.700;10.770;2023-04-08T14:56:48;6.53;;;1.95;;
7703;SDS011;3894;49.700;10.770;2023-04-08T14:59:23;8.23;;;2.72;;
7703;SDS011;3894;49.700;10.770;2023-04-08T15:02:00;7.88;;;2.78;;
7703;SDS011;3894;49.700;10.770;2023-04-08T15:04:42;7.90;;;2.75;;
7703;SDS011;3894;49.700;10.770;2023-04-08T15:07:16;6.85;;;2.72;;
7703;SDS011;3894;49.700;10.770;2023-04-08T15:12:42;6.25;;;2.30;;
7703;SDS011;3894;49.700;10.770;2023-04-08T15:15:13;6.40;;;2.35;;
7703;SDS011;3894;49.700;10.770;2023-04-08T15:17:42;6.53;;;2.10;;
7703;SDS011;3894;49.700;10.770;2023-04-08T15:20:48;7.15;;;2.33;;
7703;SDS011;3894;49.700;10.770;2023-04-08T15:23:25;7.05;;;2.45;;
7703;SDS011;3894;49.700;10.770;2023-04-08T15:26:22;7.28;;;2.20;;
7703;SDS011;3894;49.700;10.770;2023-04-08T15:29:13;6.35;;;2.33;;
7703;SDS011;3894;49.700;10.770;2023-04-08T15:31:58;6.10;;;2.10;;
7703;SDS011;3894;49.700;10.770;2023-04-08T15:34:42;7.03;;;2.47;;
7703;SDS011;3894;49.700;10.770;2023-04-08T15:37:26;6.22;;;2.30;;
7703;SDS011;3894;49.700;10.770;2023-04-08T15:40:05;7.45;;;2.85;;
7703;SDS011;3894;49.700;10.770;2023-04-08T15:42:51;6.93;;;2.40;;
7703;SDS011;3894;49.700;10.770;2023-04-08T15:45:41;5.85;;;1.85;;
7703;SDS011;3894;49.700;10.770;2023-04-08T15:48:30;6.15;;;1.60;;
7703;SDS011;3894;49.700;10.770;2023-04-08T15:51:10;5.68;;;1.83;;
7703;SDS011;3894;49.700;10.770;2023-04-08T15:53:56;6.75;;;2.15;;
7703;SDS011;3894;49.700;10.770;2023-04-08T15:56:34;6.00;;;2.17;;
7703;SDS011;3894;49.700;10.770;2023-04-08T15:59:10;6.40;;;2.17;;